Flight Number: EUR1439 Duration: 3:00
Departure: Amsterdam Schiphol (EHAM) at 08:15 Distance: 1106 Nm
Arrival: Skiathos (LGSK) at 11:15 Equipment: B737

Weather Information
Amsterdam Airport Schiphol, Netherlands (EHAM) 52-18N 004-46E -2M Oct 19, 2018 - 01:25 PM EDT / 2018.10.19 1725 UTC
Wind: from the NNE (030 degrees) at 5 MPH (4 KT):0
Visibility: greater than 7 mile(s):0
Sky conditions: mostly clear Temperature: 50 F (10 C) Dew Point: 42 F (6 C) Relative Humidity: 76% Pressure (altimeter): 30.30 in. Hg (1026 hPa)
ob: EHAM 191725Z 03004KT 9999 FEW030 10/06 Q1026 NOSIG cycle: 17
Sunrise: 06:18 Sunset: 16:33 (UTC)

Skiathos Island, Greece (LGSK) 39-11N 023-30E Oct 19, 2018 - 01:50 PM EDT / 2018.10.19 1750 UTC
Wind: Calm:0
Visibility: 4 mile(s):0
Sky conditions: mostly clear Temperature: 64 F (18 C) Dew Point: 59 F (15 C) Relative Humidity: 82% Pressure (altimeter): 30.00 in. Hg (1016 hPa)
ob: LGSK 191750Z 00000KT 8000 FEW015 18/15 Q1016 cycle: 18
Sunrise: 04:43 Sunset: 15:38 (UTC)

TAF:2012/09/27 00:18 TAF LGSK 272300Z 2800/2909 01010KT 9999 FEW020

Previous Pireps for this route
Date Aircraft Flight time Fuel used Landing rate On time
2014-10-10B7372.52184140Yes
2015-10-12B73702.5225727-364No
2017-02-21B7373.1023104-304No
(pireps marked green are flown by you)

Route map